sensor_id;sensor_type;location;lat;lon;timestamp;P1;durP1;ratioP1;P2;durP2;ratioP2
49582;SDS011;36329;48.816;44.624;2023-04-24T00:02:35;21.3;;;10.7;;
49582;SDS011;36329;48.816;44.624;2023-04-24T00:05:38;18.7;;;10.8;;
49582;SDS011;36329;48.816;44.624;2023-04-24T00:08:40;21.6;;;11.1;;
49582;SDS011;36329;48.816;44.624;2023-04-24T00:11:43;20.4;;;10.3;;
49582;SDS011;36329;48.816;44.624;2023-04-24T00:14:45;18.9;;;10.1;;
49582;SDS011;36329;48.816;44.624;2023-04-24T00:17:48;19;;;10.4;;
49582;SDS011;36329;48.816;44.624;2023-04-24T00:20:50;18.1;;;9.9;;
49582;SDS011;36329;48.816;44.624;2023-04-24T00:23:52;16.4;;;9.7;;
49582;SDS011;36329;48.816;44.624;2023-04-24T00:26:55;17.7;;;9;;
49582;SDS011;36329;48.816;44.624;2023-04-24T00:29:58;19.3;;;9.4;;
49582;SDS011;36329;48.816;44.624;2023-04-24T00:33:00;17.1;;;9.5;;
49582;SDS011;36329;48.816;44.624;2023-04-24T00:36:02;16.5;;;9.2;;
49582;SDS011;36329;48.816;44.624;2023-04-24T00:39:05;16;;;9.6;;
49582;SDS011;36329;48.816;44.624;2023-04-24T00:42:11;15.9;;;9.6;;
49582;SDS011;36329;48.816;44.624;2023-04-24T00:45:15;17.1;;;9.6;;
49582;SDS011;36329;48.816;44.624;2023-04-24T00:48:18;16.1;;;9.5;;
49582;SDS011;36329;48.816;44.624;2023-04-24T00:51:21;17.6;;;9.1;;
49582;SDS011;36329;48.816;44.624;2023-04-24T00:54:25;15.3;;;9.2;;
49582;SDS011;36329;48.816;44.624;2023-04-24T00:57:28;16.5;;;8.9;;
49582;SDS011;36329;48.816;44.624;2023-04-24T01:00:30;19.9;;;9.4;;
49582;SDS011;36329;48.816;44.624;2023-04-24T01:03:33;15.9;;;8.8;;
49582;SDS011;36329;48.816;44.624;2023-04-24T01:06:36;17.5;;;8.8;;
49582;SDS011;36329;48.816;44.624;2023-04-24T01:09:42;20;;;9;;
49582;SDS011;36329;48.816;44.624;2023-04-24T01:12:48;18.2;;;9;;
49582;SDS011;36329;48.816;44.624;2023-04-24T01:15:50;17.2;;;9.3;;
49582;SDS011;36329;48.816;44.624;2023-04-24T01:18:53;16.2;;;8.9;;
49582;SDS011;36329;48.816;44.624;2023-04-24T01:21:57;14.9;;;8.9;;
49582;SDS011;36329;48.816;44.624;2023-04-24T01:25:00;17.3;;;9.1;;
49582;SDS011;36329;48.816;44.624;2023-04-24T01:28:05;15.1;;;8.9;;
49582;SDS011;36329;48.816;44.624;2023-04-24T01:31:07;16.2;;;9.3;;
49582;SDS011;36329;48.816;44.624;2023-04-24T01:34:09;16.1;;;9.3;;
49582;SDS011;36329;48.816;44.624;2023-04-24T01:37:12;16.7;;;9.7;;
49582;SDS011;36329;48.816;44.624;2023-04-24T01:40:14;19.1;;;10;;
49582;SDS011;36329;48.816;44.624;2023-04-24T01:43:17;18.4;;;9.7;;
49582;SDS011;36329;48.816;44.624;2023-04-24T01:46:19;17.5;;;9.7;;
49582;SDS011;36329;48.816;44.624;2023-04-24T01:49:22;16.7;;;9.9;;
49582;SDS011;36329;48.816;44.624;2023-04-24T01:52:25;17.8;;;9.6;;
49582;SDS011;36329;48.816;44.624;2023-04-24T01:55:27;18.3;;;9.5;;
49582;SDS011;36329;48.816;44.624;2023-04-24T01:58:29;18.8;;;10;;
49582;SDS011;36329;48.816;44.624;2023-04-24T02:01:33;15.1;;;9.5;;
49582;SDS011;36329;48.816;44.624;2023-04-24T02:04:36;16.2;;;9.1;;
49582;SDS011;36329;48.816;44.624;2023-04-24T02:07:39;14.1;;;8.4;;
49582;SDS011;36329;48.816;44.624;2023-04-24T02:10:41;16.3;;;8.4;;
49582;SDS011;36329;48.816;44.624;2023-04-24T02:13:44;15;;;8.2;;
49582;SDS011;36329;48.816;44.624;2023-04-24T02:16:46;14.5;;;8.3;;
49582;SDS011;36329;48.816;44.624;2023-04-24T02:19:49;14.1;;;8.1;;
49582;SDS011;36329;48.816;44.624;2023-04-24T02:22:51;16;;;8;;
49582;SDS011;36329;48.816;44.624;2023-04-24T02:25:53;13.4;;;8.4;;
49582;SDS011;36329;48.816;44.624;2023-04-24T02:28:56;13.3;;;8.1;;
49582;SDS011;36329;48.816;44.624;2023-04-24T02:31:58;16;;;7.8;;
49582;SDS011;36329;48.816;44.624;2023-04-24T02:35:00;11.8;;;7.9;;
49582;SDS011;36329;48.816;44.624;2023-04-24T02:38:02;13.7;;;7.8;;
49582;SDS011;36329;48.816;44.624;2023-04-24T02:41:05;16.1;;;8.2;;
49582;SDS011;36329;48.816;44.624;2023-04-24T02:44:07;13.6;;;8.1;;
49582;SDS011;36329;48.816;44.624;2023-04-24T02:47:09;13;;;7.9;;
49582;SDS011;36329;48.816;44.624;2023-04-24T02:50:12;13.4;;;8;;
49582;SDS011;36329;48.816;44.624;2023-04-24T02:53:14;13.1;;;7.9;;
49582;SDS011;36329;48.816;44.624;2023-04-24T02:56:16;17;;;8.4;;
49582;SDS011;36329;48.816;44.624;2023-04-24T02:59:18;16.2;;;7.9;;
49582;SDS011;36329;48.816;44.624;2023-04-24T03:02:20;12.6;;;8.2;;
49582;SDS011;36329;48.816;44.624;2023-04-24T03:05:22;16.5;;;8.3;;
49582;SDS011;36329;48.816;44.624;2023-04-24T03:08:24;17.6;;;8;;
49582;SDS011;36329;48.816;44.624;2023-04-24T03:11:27;14.9;;;8;;
49582;SDS011;36329;48.816;44.624;2023-04-24T03:14:30;12.6;;;7.7;;
49582;SDS011;36329;48.816;44.624;2023-04-24T03:17:32;11;;;7.5;;
49582;SDS011;36329;48.816;44.624;2023-04-24T03:20:34;14.4;;;7.6;;
49582;SDS011;36329;48.816;44.624;2023-04-24T03:23:36;14;;;7.6;;
49582;SDS011;36329;48.816;44.624;2023-04-24T03:26:38;13;;;7.4;;
49582;SDS011;36329;48.816;44.624;2023-04-24T03:29:41;12.5;;;7.8;;
49582;SDS011;36329;48.816;44.624;2023-04-24T03:32:43;13.9;;;7.7;;
49582;SDS011;36329;48.816;44.624;2023-04-24T03:35:45;11.7;;;7.2;;
49582;SDS011;36329;48.816;44.624;2023-04-24T03:38:47;11.6;;;7.2;;
49582;SDS011;36329;48.816;44.624;2023-04-24T03:41:50;11;;;6.9;;
49582;SDS011;36329;48.816;44.624;2023-04-24T03:44:52;10.6;;;6.7;;
49582;SDS011;36329;48.816;44.624;2023-04-24T03:47:55;11.2;;;6.4;;
49582;SDS011;36329;48.816;44.624;2023-04-24T03:50:57;11.5;;;6.8;;
49582;SDS011;36329;48.816;44.624;2023-04-24T03:53:59;10.8;;;6.7;;
49582;SDS011;36329;48.816;44.624;2023-04-24T03:57:02;12.2;;;6.9;;
49582;SDS011;36329;48.816;44.624;2023-04-24T04:00:05;13.6;;;6.8;;
49582;SDS011;36329;48.816;44.624;2023-04-24T04:03:08;10.6;;;6.9;;
49582;SDS011;36329;48.816;44.624;2023-04-24T04:06:10;11.9;;;6.7;;
49582;SDS011;36329;48.816;44.624;2023-04-24T04:09:12;10.6;;;6.7;;
49582;SDS011;36329;48.816;44.624;2023-04-24T04:12:16;12.4;;;6.6;;
49582;SDS011;36329;48.816;44.624;2023-04-24T04:15:18;9.8;;;6.5;;
49582;SDS011;36329;48.816;44.624;2023-04-24T04:18:21;11.1;;;7;;
49582;SDS011;36329;48.816;44.624;2023-04-24T04:21:24;11.6;;;7.1;;
49582;SDS011;36329;48.816;44.624;2023-04-24T04:24:26;11.7;;;6.2;;
49582;SDS011;36329;48.816;44.624;2023-04-24T04:27:28;9.5;;;6.5;;
49582;SDS011;36329;48.816;44.624;2023-04-24T04:30:30;11.6;;;6.3;;
49582;SDS011;36329;48.816;44.624;2023-04-24T04:33:32;8.7;;;5.8;;
49582;SDS011;36329;48.816;44.624;2023-04-24T04:36:35;9.2;;;6;;
49582;SDS011;36329;48.816;44.624;2023-04-24T04:39:37;13.5;;;6.4;;
49582;SDS011;36329;48.816;44.624;2023-04-24T04:42:40;14.9;;;6.7;;
49582;SDS011;36329;48.816;44.624;2023-04-24T04:45:42;11.5;;;7;;
49582;SDS011;36329;48.816;44.624;2023-04-24T04:48:44;12.8;;;7.7;;
49582;SDS011;36329;48.816;44.624;2023-04-24T04:51:47;12.4;;;8.3;;
49582;SDS011;36329;48.816;44.624;2023-04-24T04:54:49;11.5;;;7.9;;
49582;SDS011;36329;48.816;44.624;2023-04-24T04:57:51;11.9;;;7.2;;
49582;SDS011;36329;48.816;44.624;2023-04-24T05:00:53;11.3;;;7.1;;
49582;SDS011;36329;48.816;44.624;2023-04-24T05:03:55;12.4;;;7.2;;
49582;SDS011;36329;48.816;44.624;2023-04-24T05:06:57;11;;;7.1;;
49582;SDS011;36329;48.816;44.624;2023-04-24T05:09:59;18;;;7;;
49582;SDS011;36329;48.816;44.624;2023-04-24T05:13:01;12.2;;;6.4;;
49582;SDS011;36329;48.816;44.624;2023-04-24T05:16:04;16.2;;;6.6;;
49582;SDS011;36329;48.816;44.624;2023-04-24T05:19:07;15.2;;;6.3;;
49582;SDS011;36329;48.816;44.624;2023-04-24T05:22:09;12.3;;;6.5;;
49582;SDS011;36329;48.816;44.624;2023-04-24T05:25:11;14.9;;;6.1;;
49582;SDS011;36329;48.816;44.624;2023-04-24T05:28:13;10.3;;;5.5;;
49582;SDS011;36329;48.816;44.624;2023-04-24T05:31:15;8.7;;;5.2;;
49582;SDS011;36329;48.816;44.624;2023-04-24T05:34:17;8.5;;;5.4;;
49582;SDS011;36329;48.816;44.624;2023-04-24T05:37:19;10.1;;;5.4;;
49582;SDS011;36329;48.816;44.624;2023-04-24T05:40:22;12.6;;;5;;
49582;SDS011;36329;48.816;44.624;2023-04-24T05:43:24;9.1;;;5.4;;
49582;SDS011;36329;48.816;44.624;2023-04-24T05:46:26;11.8;;;5.2;;
49582;SDS011;36329;48.816;44.624;2023-04-24T05:49:28;9.1;;;4.7;;
49582;SDS011;36329;48.816;44.624;2023-04-24T05:52:30;9.5;;;4.8;;
49582;SDS011;36329;48.816;44.624;2023-04-24T05:55:32;10;;;5.2;;
49582;SDS011;36329;48.816;44.624;2023-04-24T05:58:34;14.2;;;5.5;;
49582;SDS011;36329;48.816;44.624;2023-04-24T06:01:37;12.8;;;5.4;;
49582;SDS011;36329;48.816;44.624;2023-04-24T06:04:39;11.2;;;4.7;;
49582;SDS011;36329;48.816;44.624;2023-04-24T06:07:41;9.9;;;4.4;;
49582;SDS011;36329;48.816;44.624;2023-04-24T06:10:43;13.8;;;5.4;;
49582;SDS011;36329;48.816;44.624;2023-04-24T06:13:46;13.4;;;5.7;;
49582;SDS011;36329;48.816;44.624;2023-04-24T06:16:48;12.3;;;5.6;;
49582;SDS011;36329;48.816;44.624;2023-04-24T06:19:51;13.9;;;6.5;;
49582;SDS011;36329;48.816;44.624;2023-04-24T06:22:53;11.4;;;6.1;;
49582;SDS011;36329;48.816;44.624;2023-04-24T06:25:55;12;;;6.4;;
49582;SDS011;36329;48.816;44.624;2023-04-24T06:28:57;12.8;;;6.7;;
49582;SDS011;36329;48.816;44.624;2023-04-24T06:31:59;11.2;;;6.2;;
49582;SDS011;36329;48.816;44.624;2023-04-24T06:35:01;14.1;;;6.5;;
49582;SDS011;36329;48.816;44.624;2023-04-24T06:38:05;12.6;;;6.2;;
49582;SDS011;36329;48.816;44.624;2023-04-24T06:41:08;11.9;;;6.2;;
49582;SDS011;36329;48.816;44.624;2023-04-24T06:44:10;10.1;;;5.7;;
49582;SDS011;36329;48.816;44.624;2023-04-24T06:47:12;10.3;;;5.9;;
49582;SDS011;36329;48.816;44.624;2023-04-24T06:50:14;12.1;;;6.1;;
49582;SDS011;36329;48.816;44.624;2023-04-24T06:53:16;12.1;;;6.3;;
49582;SDS011;36329;48.816;44.624;2023-04-24T06:56:18;10.9;;;5.5;;
49582;SDS011;36329;48.816;44.624;2023-04-24T06:59:20;11.5;;;5.4;;
49582;SDS011;36329;48.816;44.624;2023-04-24T07:02:22;9.8;;;5.3;;
49582;SDS011;36329;48.816;44.624;2023-04-24T07:05:24;12.7;;;5.6;;
49582;SDS011;36329;48.816;44.624;2023-04-24T07:08:26;11.5;;;5.1;;
49582;SDS011;36329;48.816;44.624;2023-04-24T07:11:28;11.8;;;4.9;;
49582;SDS011;36329;48.816;44.624;2023-04-24T07:14:30;10.6;;;4.3;;
49582;SDS011;36329;48.816;44.624;2023-04-24T07:17:33;15.3;;;4.7;;
49582;SDS011;36329;48.816;44.624;2023-04-24T07:20:36;10.9;;;3.9;;
49582;SDS011;36329;48.816;44.624;2023-04-24T07:23:38;7.4;;;3.7;;
49582;SDS011;36329;48.816;44.624;2023-04-24T07:26:41;8.4;;;3.6;;
49582;SDS011;36329;48.816;44.624;2023-04-24T07:29:43;6;;;3.2;;
49582;SDS011;36329;48.816;44.624;2023-04-24T07:32:45;6.9;;;3.5;;
49582;SDS011;36329;48.816;44.624;2023-04-24T07:35:47;8.8;;;3;;
49582;SDS011;36329;48.816;44.624;2023-04-24T07:38:49;6.4;;;3;;
49582;SDS011;36329;48.816;44.624;2023-04-24T07:41:52;8.3;;;3;;
49582;SDS011;36329;48.816;44.624;2023-04-24T07:44:54;4.6;;;2.7;;
49582;SDS011;36329;48.816;44.624;2023-04-24T07:47:56;5.9;;;2.4;;
49582;SDS011;36329;48.816;44.624;2023-04-24T07:50:58;7;;;2.4;;
49582;SDS011;36329;48.816;44.624;2023-04-24T07:54:00;5.7;;;2.2;;
49582;SDS011;36329;48.816;44.624;2023-04-24T07:57:02;6.1;;;2.4;;
49582;SDS011;36329;48.816;44.624;2023-04-24T08:00:05;3.7;;;2.3;;
49582;SDS011;36329;48.816;44.624;2023-04-24T08:03:08;5;;;2.4;;
49582;SDS011;36329;48.816;44.624;2023-04-24T08:06:10;5.8;;;2.6;;
49582;SDS011;36329;48.816;44.624;2023-04-24T08:09:13;7.3;;;2.3;;
49582;SDS011;36329;48.816;44.624;2023-04-24T08:12:15;5.5;;;2.3;;
49582;SDS011;36329;48.816;44.624;2023-04-24T08:15:17;5;;;2.2;;
49582;SDS011;36329;48.816;44.624;2023-04-24T08:18:20;4.5;;;2.2;;
49582;SDS011;36329;48.816;44.624;2023-04-24T08:21:22;7.2;;;2.3;;
49582;SDS011;36329;48.816;44.624;2023-04-24T08:24:24;6.3;;;2.3;;
49582;SDS011;36329;48.816;44.624;2023-04-24T08:27:27;10;;;2.4;;
49582;SDS011;36329;48.816;44.624;2023-04-24T08:30:30;4.1;;;2.3;;
49582;SDS011;36329;48.816;44.624;2023-04-24T08:33:32;7.9;;;2.1;;
49582;SDS011;36329;48.816;44.624;2023-04-24T08:36:34;9.1;;;2;;
49582;SDS011;36329;48.816;44.624;2023-04-24T08:39:36;7.2;;;2.1;;
49582;SDS011;36329;48.816;44.624;2023-04-24T08:42:38;5.8;;;2.2;;
49582;SDS011;36329;48.816;44.624;2023-04-24T08:45:41;9.2;;;2.1;;
49582;SDS011;36329;48.816;44.624;2023-04-24T08:48:43;9;;;2.5;;
49582;SDS011;36329;48.816;44.624;2023-04-24T08:51:46;9.6;;;2.3;;
49582;SDS011;36329;48.816;44.624;2023-04-24T08:54:48;5.8;;;2;;
49582;SDS011;36329;48.816;44.624;2023-04-24T08:57:51;4.3;;;2;;
49582;SDS011;36329;48.816;44.624;2023-04-24T09:00:54;6.5;;;1.8;;
49582;SDS011;36329;48.816;44.624;2023-04-24T09:03:57;5.2;;;2.1;;
49582;SDS011;36329;48.816;44.624;2023-04-24T09:06:59;5.6;;;1.9;;
49582;SDS011;36329;48.816;44.624;2023-04-24T09:10:02;5.8;;;2;;
49582;SDS011;36329;48.816;44.624;2023-04-24T09:13:06;5;;;2.1;;
49582;SDS011;36329;48.816;44.624;2023-04-24T09:16:09;5.3;;;2;;
49582;SDS011;36329;48.816;44.624;2023-04-24T09:19:11;3.2;;;1.9;;
49582;SDS011;36329;48.816;44.624;2023-04-24T09:22:14;5.1;;;1.9;;
49582;SDS011;36329;48.816;44.624;2023-04-24T09:25:17;8.8;;;2;;
49582;SDS011;36329;48.816;44.624;2023-04-24T09:28:22;7.9;;;2;;
49582;SDS011;36329;48.816;44.624;2023-04-24T09:31:28;8.9;;;2.3;;
49582;SDS011;36329;48.816;44.624;2023-04-24T09:34:31;5.3;;;1.9;;
49582;SDS011;36329;48.816;44.624;2023-04-24T09:37:35;6.5;;;1.8;;
49582;SDS011;36329;48.816;44.624;2023-04-24T09:40:37;8.4;;;1.8;;
49582;SDS011;36329;48.816;44.624;2023-04-24T09:43:40;5.6;;;1.8;;
49582;SDS011;36329;48.816;44.624;2023-04-24T09:46:43;6.8;;;1.4;;
49582;SDS011;36329;48.816;44.624;2023-04-24T09:49:47;11.2;;;1.8;;
49582;SDS011;36329;48.816;44.624;2023-04-24T09:52:56;5.9;;;2;;
49582;SDS011;36329;48.816;44.624;2023-04-24T09:56:02;7.9;;;2;;
49582;SDS011;36329;48.816;44.624;2023-04-24T09:59:08;5.4;;;1.7;;
49582;SDS011;36329;48.816;44.624;2023-04-24T10:02:16;6;;;1.9;;
49582;SDS011;36329;48.816;44.624;2023-04-24T10:05:22;5.1;;;1.6;;
49582;SDS011;36329;48.816;44.624;2023-04-24T10:08:26;2.9;;;1.8;;
49582;SDS011;36329;48.816;44.624;2023-04-24T10:11:34;4.1;;;1.8;;
49582;SDS011;36329;48.816;44.624;2023-04-24T10:14:37;6.3;;;1.9;;
49582;SDS011;36329;48.816;44.624;2023-04-24T10:17:40;4.2;;;1.8;;
49582;SDS011;36329;48.816;44.624;2023-04-24T10:20:43;4.2;;;1.8;;
49582;SDS011;36329;48.816;44.624;2023-04-24T10:23:45;3.3;;;1.9;;
49582;SDS011;36329;48.816;44.624;2023-04-24T10:26:48;3.7;;;1.9;;
49582;SDS011;36329;48.816;44.624;2023-04-24T10:29:50;4.3;;;1.8;;
49582;SDS011;36329;48.816;44.624;2023-04-24T10:32:55;3.7;;;1.9;;
49582;SDS011;36329;48.816;44.624;2023-04-24T10:35:57;3.3;;;1.9;;
49582;SDS011;36329;48.816;44.624;2023-04-24T10:39:02;3.6;;;1.8;;
49582;SDS011;36329;48.816;44.624;2023-04-24T10:42:13;3.1;;;2.1;;
49582;SDS011;36329;48.816;44.624;2023-04-24T10:45:17;5.7;;;2.1;;
49582;SDS011;36329;48.816;44.624;2023-04-24T10:48:26;4.2;;;2;;
49582;SDS011;36329;48.816;44.624;2023-04-24T10:54:52;5.4;;;1.7;;
49582;SDS011;36329;48.816;44.624;2023-04-24T10:58:02;4.7;;;1.8;;
49582;SDS011;36329;48.816;44.624;2023-04-24T11:01:05;4.2;;;2.4;;
49582;SDS011;36329;48.816;44.624;2023-04-24T11:04:08;6.5;;;2;;
49582;SDS011;36329;48.816;44.624;2023-04-24T11:07:12;4.6;;;2;;
49582;SDS011;36329;48.816;44.624;2023-04-24T11:10:24;9.7;;;2.2;;
49582;SDS011;36329;48.816;44.624;2023-04-24T11:14:00;5.6;;;1.8;;
49582;SDS011;36329;48.816;44.624;2023-04-24T11:17:00;6.1;;;2.2;;
49582;SDS011;36329;48.816;44.624;2023-04-24T11:20:02;5.8;;;2.2;;
49582;SDS011;36329;48.816;44.624;2023-04-24T11:23:05;5.6;;;2.4;;
49582;SDS011;36329;48.816;44.624;2023-04-24T11:26:11;9;;;3;;
49582;SDS011;36329;48.816;44.624;2023-04-24T11:29:15;8.3;;;2.8;;
49582;SDS011;36329;48.816;44.624;2023-04-24T11:32:18;8.8;;;2.9;;
49582;SDS011;36329;48.816;44.624;2023-04-24T11:35:25;8.1;;;3.3;;
49582;SDS011;36329;48.816;44.624;2023-04-24T11:38:28;7.4;;;3.8;;
49582;SDS011;36329;48.816;44.624;2023-04-24T11:41:30;8.4;;;3.2;;
49582;SDS011;36329;48.816;44.624;2023-04-24T11:44:33;7.7;;;3.3;;
49582;SDS011;36329;48.816;44.624;2023-04-24T11:47:36;7.3;;;2.9;;
49582;SDS011;36329;48.816;44.624;2023-04-24T11:50:39;6.4;;;2.6;;
49582;SDS011;36329;48.816;44.624;2023-04-24T11:53:41;7.3;;;2.6;;
49582;SDS011;36329;48.816;44.624;2023-04-24T11:56:44;5.9;;;2.3;;
49582;SDS011;36329;48.816;44.624;2023-04-24T11:59:48;5.9;;;2.2;;
49582;SDS011;36329;48.816;44.624;2023-04-24T12:02:51;8.6;;;2.4;;
49582;SDS011;36329;48.816;44.624;2023-04-24T12:09:08;8.9;;;1.9;;
49582;SDS011;36329;48.816;44.624;2023-04-24T12:12:12;5.1;;;1.9;;
49582;SDS011;36329;48.816;44.624;2023-04-24T12:15:15;4.8;;;1.8;;
49582;SDS011;36329;48.816;44.624;2023-04-24T12:18:18;6.5;;;1.7;;
49582;SDS011;36329;48.816;44.624;2023-04-24T12:21:21;5.4;;;1.8;;
49582;SDS011;36329;48.816;44.624;2023-04-24T12:24:27;4.2;;;1.6;;
49582;SDS011;36329;48.816;44.624;2023-04-24T12:27:37;6.9;;;3.1;;
49582;SDS011;36329;48.816;44.624;2023-04-24T12:30:43;3.8;;;2;;
49582;SDS011;36329;48.816;44.624;2023-04-24T12:33:52;5.5;;;1.6;;
49582;SDS011;36329;48.816;44.624;2023-04-24T12:36:54;5.2;;;1.8;;
49582;SDS011;36329;48.816;44.624;2023-04-24T12:39:59;5.4;;;2;;
49582;SDS011;36329;48.816;44.624;2023-04-24T12:43:13;3.1;;;1.9;;
49582;SDS011;36329;48.816;44.624;2023-04-24T12:46:19;5;;;2;;
49582;SDS011;36329;48.816;44.624;2023-04-24T12:49:21;6.3;;;2.7;;
49582;SDS011;36329;48.816;44.624;2023-04-24T12:52:24;4.7;;;2.3;;
49582;SDS011;36329;48.816;44.624;2023-04-24T12:55:27;4.5;;;2.1;;
49582;SDS011;36329;48.816;44.624;2023-04-24T12:58:30;5.3;;;2.2;;
49582;SDS011;36329;48.816;44.624;2023-04-24T13:01:32;5.4;;;2;;
49582;SDS011;36329;48.816;44.624;2023-04-24T13:04:35;7.2;;;2;;
49582;SDS011;36329;48.816;44.624;2023-04-24T13:07:37;3.5;;;1.6;;
49582;SDS011;36329;48.816;44.624;2023-04-24T13:10:39;5.4;;;1.9;;
49582;SDS011;36329;48.816;44.624;2023-04-24T13:13:42;5.2;;;2;;
49582;SDS011;36329;48.816;44.624;2023-04-24T13:16:45;5.6;;;2.2;;
49582;SDS011;36329;48.816;44.624;2023-04-24T13:19:49;5.8;;;2.1;;
49582;SDS011;36329;48.816;44.624;2023-04-24T13:22:51;6.2;;;2;;
49582;SDS011;36329;48.816;44.624;2023-04-24T13:25:53;6.9;;;2;;
49582;SDS011;36329;48.816;44.624;2023-04-24T13:28:56;5.4;;;2.1;;
49582;SDS011;36329;48.816;44.624;2023-04-24T13:31:58;4.4;;;1.5;;
49582;SDS011;36329;48.816;44.624;2023-04-24T13:35:01;3.2;;;1.8;;
49582;SDS011;36329;48.816;44.624;2023-04-24T13:38:06;7;;;1.5;;
49582;SDS011;36329;48.816;44.624;2023-04-24T13:41:09;3.9;;;1.3;;
49582;SDS011;36329;48.816;44.624;2023-04-24T13:44:11;5.3;;;1.5;;
49582;SDS011;36329;48.816;44.624;2023-04-24T13:47:14;4.8;;;1.4;;
49582;SDS011;36329;48.816;44.624;2023-04-24T13:50:16;5.3;;;1.5;;
49582;SDS011;36329;48.816;44.624;2023-04-24T13:53:18;4.9;;;1.9;;
49582;SDS011;36329;48.816;44.624;2023-04-24T13:56:20;4;;;1.6;;
49582;SDS011;36329;48.816;44.624;2023-04-24T13:59:22;3.8;;;1.7;;
49582;SDS011;36329;48.816;44.624;2023-04-24T14:02:25;5.3;;;2.3;;
49582;SDS011;36329;48.816;44.624;2023-04-24T14:05:27;3.6;;;2.4;;
49582;SDS011;36329;48.816;44.624;2023-04-24T14:08:29;6.5;;;3.5;;
49582;SDS011;36329;48.816;44.624;2023-04-24T14:11:31;5;;;2.6;;
49582;SDS011;36329;48.816;44.624;2023-04-24T14:14:33;2.7;;;1.6;;
49582;SDS011;36329;48.816;44.624;2023-04-24T14:17:35;4.7;;;1.4;;
49582;SDS011;36329;48.816;44.624;2023-04-24T14:20:37;2.2;;;1.7;;
49582;SDS011;36329;48.816;44.624;2023-04-24T14:23:39;4.8;;;2;;
49582;SDS011;36329;48.816;44.624;2023-04-24T14:26:42;3.5;;;1.5;;
49582;SDS011;36329;48.816;44.624;2023-04-24T14:29:44;2.5;;;1.3;;
49582;SDS011;36329;48.816;44.624;2023-04-24T14:32:47;3.6;;;1.1;;
49582;SDS011;36329;48.816;44.624;2023-04-24T14:35:50;3;;;1.3;;
49582;SDS011;36329;48.816;44.624;2023-04-24T14:38:52;4.4;;;1.7;;
49582;SDS011;36329;48.816;44.624;2023-04-24T14:41:54;4.5;;;2.1;;
49582;SDS011;36329;48.816;44.624;2023-04-24T14:44:56;3.7;;;1.6;;
49582;SDS011;36329;48.816;44.624;2023-04-24T14:47:59;4.8;;;1.9;;
49582;SDS011;36329;48.816;44.624;2023-04-24T14:51:01;4.8;;;2.3;;
49582;SDS011;36329;48.816;44.624;2023-04-24T14:54:04;3.8;;;2.2;;
49582;SDS011;36329;48.816;44.624;2023-04-24T14:57:06;5.4;;;2.5;;
49582;SDS011;36329;48.816;44.624;2023-04-24T15:00:08;4.6;;;2.8;;
49582;SDS011;36329;48.816;44.624;2023-04-24T15:03:10;5.6;;;2.4;;
49582;SDS011;36329;48.816;44.624;2023-04-24T15:06:13;4.9;;;2.4;;
49582;SDS011;36329;48.816;44.624;2023-04-24T15:09:15;6.6;;;2.6;;
49582;SDS011;36329;48.816;44.624;2023-04-24T15:12:18;4.6;;;2.6;;
49582;SDS011;36329;48.816;44.624;2023-04-24T15:15:20;4.5;;;2.8;;
49582;SDS011;36329;48.816;44.624;2023-04-24T15:18:22;4.9;;;2.8;;
49582;SDS011;36329;48.816;44.624;2023-04-24T15:21:25;4.9;;;2.4;;
49582;SDS011;36329;48.816;44.624;2023-04-24T15:24:27;5.8;;;2.2;;
49582;SDS011;36329;48.816;44.624;2023-04-24T15:27:38;3.4;;;1.9;;
49582;SDS011;36329;48.816;44.624;2023-04-24T15:30:41;3;;;1.9;;
49582;SDS011;36329;48.816;44.624;2023-04-24T15:33:43;2.1;;;1.4;;
49582;SDS011;36329;48.816;44.624;2023-04-24T15:36:45;3.5;;;1.7;;
49582;SDS011;36329;48.816;44.624;2023-04-24T15:39:47;3.2;;;1.6;;
49582;SDS011;36329;48.816;44.624;2023-04-24T15:42:49;3.8;;;1.6;;
49582;SDS011;36329;48.816;44.624;2023-04-24T15:45:51;5;;;1.8;;
49582;SDS011;36329;48.816;44.624;2023-04-24T15:48:53;2.3;;;1.8;;
49582;SDS011;36329;48.816;44.624;2023-04-24T15:51:56;4;;;1.8;;
49582;SDS011;36329;48.816;44.624;2023-04-24T15:54:59;3.5;;;2.1;;
49582;SDS011;36329;48.816;44.624;2023-04-24T15:58:01;5.2;;;1.8;;
49582;SDS011;36329;48.816;44.624;2023-04-24T16:01:04;4.7;;;1.6;;
49582;SDS011;36329;48.816;44.624;2023-04-24T16:04:06;6.7;;;2.9;;
49582;SDS011;36329;48.816;44.624;2023-04-24T16:07:09;2.8;;;1.8;;
49582;SDS011;36329;48.816;44.624;2023-04-24T16:10:11;4.5;;;1.7;;
49582;SDS011;36329;48.816;44.624;2023-04-24T16:13:14;3.5;;;1.7;;
49582;SDS011;36329;48.816;44.624;2023-04-24T16:16:16;3.8;;;1.8;;
49582;SDS011;36329;48.816;44.624;2023-04-24T16:19:18;5.5;;;1.8;;
49582;SDS011;36329;48.816;44.624;2023-04-24T16:22:20;3.9;;;2.1;;
49582;SDS011;36329;48.816;44.624;2023-04-24T16:25:22;7.3;;;2;;
49582;SDS011;36329;48.816;44.624;2023-04-24T16:28:24;6;;;2.1;;
49582;SDS011;36329;48.816;44.624;2023-04-24T16:31:27;5.4;;;2;;
49582;SDS011;36329;48.816;44.624;2023-04-24T16:34:29;4.1;;;1.8;;
49582;SDS011;36329;48.816;44.624;2023-04-24T16:37:31;3.3;;;2;;
49582;SDS011;36329;48.816;44.624;2023-04-24T16:40:33;5.8;;;1.8;;
49582;SDS011;36329;48.816;44.624;2023-04-24T16:43:35;2.1;;;1.4;;
49582;SDS011;36329;48.816;44.624;2023-04-24T16:46:37;3.3;;;1.5;;
49582;SDS011;36329;48.816;44.624;2023-04-24T16:49:40;4.3;;;1.6;;
49582;SDS011;36329;48.816;44.624;2023-04-24T16:52:42;1.9;;;1.2;;
49582;SDS011;36329;48.816;44.624;2023-04-24T16:55:44;5.2;;;1.4;;
49582;SDS011;36329;48.816;44.624;2023-04-24T16:58:46;4.7;;;2;;
49582;SDS011;36329;48.816;44.624;2023-04-24T17:01:49;4.5;;;2.2;;
49582;SDS011;36329;48.816;44.624;2023-04-24T17:04:51;5.1;;;3;;
49582;SDS011;36329;48.816;44.624;2023-04-24T17:07:53;5.7;;;3.2;;
49582;SDS011;36329;48.816;44.624;2023-04-24T17:10:55;6.7;;;2.9;;
49582;SDS011;36329;48.816;44.624;2023-04-24T17:13:57;4.6;;;2.5;;
49582;SDS011;36329;48.816;44.624;2023-04-24T17:16:59;5.6;;;2.5;;
49582;SDS011;36329;48.816;44.624;2023-04-24T17:20:01;5.9;;;2.5;;
49582;SDS011;36329;48.816;44.624;2023-04-24T17:23:07;2.3;;;2;;
49582;SDS011;36329;48.816;44.624;2023-04-24T17:26:09;4.4;;;2.1;;
49582;SDS011;36329;48.816;44.624;2023-04-24T17:29:12;3.2;;;1.5;;
49582;SDS011;36329;48.816;44.624;2023-04-24T17:32:15;7.5;;;1.5;;
49582;SDS011;36329;48.816;44.624;2023-04-24T17:35:18;3.2;;;1.5;;
49582;SDS011;36329;48.816;44.624;2023-04-24T17:38:19;3.1;;;1.5;;
49582;SDS011;36329;48.816;44.624;2023-04-24T17:41:22;3.8;;;1.7;;
49582;SDS011;36329;48.816;44.624;2023-04-24T17:44:24;2.6;;;1.7;;
49582;SDS011;36329;48.816;44.624;2023-04-24T17:47:26;3.5;;;1.6;;
49582;SDS011;36329;48.816;44.624;2023-04-24T17:50:28;3.5;;;1.6;;
49582;SDS011;36329;48.816;44.624;2023-04-24T17:53:31;3.4;;;1.6;;
49582;SDS011;36329;48.816;44.624;2023-04-24T17:56:33;5.4;;;1.7;;
49582;SDS011;36329;48.816;44.624;2023-04-24T17:59:35;4.9;;;1.8;;
49582;SDS011;36329;48.816;44.624;2023-04-24T18:02:37;3.1;;;1.8;;
49582;SDS011;36329;48.816;44.624;2023-04-24T18:05:40;5.9;;;2;;
49582;SDS011;36329;48.816;44.624;2023-04-24T18:08:42;5.7;;;2.1;;
49582;SDS011;36329;48.816;44.624;2023-04-24T18:11:45;4.9;;;2.1;;
49582;SDS011;36329;48.816;44.624;2023-04-24T18:14:47;4.7;;;2;;
49582;SDS011;36329;48.816;44.624;2023-04-24T18:17:54;6.3;;;2.2;;
49582;SDS011;36329;48.816;44.624;2023-04-24T18:21:06;4.4;;;1.8;;
49582;SDS011;36329;48.816;44.624;2023-04-24T18:24:10;5.1;;;2.1;;
49582;SDS011;36329;48.816;44.624;2023-04-24T18:27:13;7.3;;;2.2;;
49582;SDS011;36329;48.816;44.624;2023-04-24T18:30:15;5.2;;;1.9;;
49582;SDS011;36329;48.816;44.624;2023-04-24T18:33:22;4.2;;;2.1;;
49582;SDS011;36329;48.816;44.624;2023-04-24T18:36:34;4.3;;;1.8;;
49582;SDS011;36329;48.816;44.624;2023-04-24T18:39:46;4.5;;;2;;
49582;SDS011;36329;48.816;44.624;2023-04-24T18:42:54;5;;;2.3;;
49582;SDS011;36329;48.816;44.624;2023-04-24T18:45:57;3.6;;;1.8;;
49582;SDS011;36329;48.816;44.624;2023-04-24T18:49:00;4.6;;;2;;